createdAt,value
2018-09-01T00:00:51.853Z,101053.46
2018-09-01T00:03:20.069Z,101059.36
2018-09-01T00:05:48.371Z,101063.94
2018-09-01T00:08:16.522Z,101060.16
2018-09-01T00:10:44.708Z,101060.83
2018-09-01T00:13:13.953Z,101067.77
2018-09-01T00:15:42.654Z,101067.16
2018-09-01T00:18:10.916Z,101072.42
2018-09-01T00:20:40.448Z,101076.65
2018-09-01T00:23:08.660Z,101073.71
2018-09-01T00:25:36.742Z,101075.36
2018-09-01T00:28:05.595Z,101068.03
2018-09-01T00:30:34.554Z,101066.68
2018-09-01T00:33:04.425Z,101061.32
2018-09-01T00:35:33.476Z,101058.06
2018-09-01T00:38:07.616Z,101041.09
2018-09-01T00:40:35.839Z,101039.15
2018-09-01T00:43:04.199Z,101043.59
2018-09-01T00:45:32.395Z,101042.42
2018-09-01T00:48:00.634Z,101053.03
2018-09-01T00:50:28.805Z,101053.71
2018-09-01T00:52:57.059Z,101054.84
2018-09-01T00:55:30.151Z,101052.25
2018-09-01T00:57:58.711Z,101049.15
2018-09-01T01:00:26.903Z,101053.66
2018-09-01T01:02:55.994Z,101058.69
2018-09-01T01:05:24.795Z,101061.00
2018-09-01T01:07:52.969Z,101064.59
2018-09-01T01:10:21.149Z,101074.48
2018-09-01T01:12:49.581Z,101077.19
2018-09-01T01:15:18.639Z,101072.39
2018-09-01T01:17:47.001Z,101069.95
2018-09-01T01:20:15.197Z,101077.16
2018-09-01T01:22:43.374Z,101073.97
2018-09-01T01:25:11.714Z,101076.86
2018-09-01T01:27:39.951Z,101074.25
2018-09-01T01:30:14.832Z,101069.52
2018-09-01T01:32:43.307Z,101074.27
2018-09-01T01:35:11.456Z,101085.09
2018-09-01T01:37:39.872Z,101085.67
2018-09-01T01:40:08.066Z,101096.78
2018-09-01T01:42:37.286Z,101097.28
2018-09-01T01:45:06.659Z,101094.77
2018-09-01T01:47:38.904Z,101095.60
2018-09-01T01:50:08.804Z,101092.84
2018-09-01T01:52:37.194Z,101095.86
2018-09-01T01:55:05.566Z,101099.66
2018-09-01T01:57:38.318Z,101100.44
2018-09-01T02:00:06.712Z,101098.80
2018-09-01T02:02:35.710Z,101095.25
2018-09-01T02:05:04.605Z,101102.01
2018-09-01T02:07:32.925Z,101102.52
2018-09-01T02:10:01.042Z,101099.81
2018-09-01T02:12:29.375Z,101098.21
2018-09-01T02:14:57.610Z,101102.30
2018-09-01T02:17:25.866Z,101096.81
2018-09-01T02:19:54.077Z,101098.35
2018-09-01T02:22:22.280Z,101093.48
2018-09-01T02:24:51.216Z,101093.91
2018-09-01T02:27:20.141Z,101097.16
2018-09-01T02:29:48.376Z,101098.88
2018-09-01T02:32:16.524Z,101088.27
2018-09-01T02:34:44.833Z,101091.08
2018-09-01T02:37:13.048Z,101101.67
2018-09-01T02:39:41.977Z,101110.61
2018-09-01T02:42:10.793Z,101099.20
2018-09-01T02:44:38.991Z,101100.44
2018-09-01T02:47:07.913Z,101101.37
2018-09-01T02:49:36.093Z,101106.80
2018-09-01T02:52:05.521Z,101105.96
2018-09-01T02:54:33.926Z,101096.73
2018-09-01T02:57:02.179Z,101099.77
2018-09-01T02:59:30.301Z,101096.63
2018-09-01T03:01:58.561Z,101093.73
2018-09-01T03:04:26.749Z,101090.70
2018-09-01T03:06:57.547Z,101090.40
2018-09-01T03:09:25.881Z,101096.23
2018-09-01T03:11:55.379Z,101092.91
2018-09-01T03:14:24.534Z,101090.42
2018-09-01T03:16:53.853Z,101100.61
2018-09-01T03:19:22.759Z,101098.33
2018-09-01T03:21:50.953Z,101096.65
2018-09-01T03:24:19.212Z,101093.73
2018-09-01T03:26:47.527Z,101104.25
2018-09-01T03:29:15.900Z,101108.52
2018-09-01T03:31:45.699Z,101099.05
2018-09-01T03:34:13.842Z,101095.60
2018-09-01T03:36:42.700Z,101096.23
2018-09-01T03:39:10.930Z,101098.64
2018-09-01T03:41:39.483Z,101094.05
2018-09-01T03:44:08.150Z,101093.87
2018-09-01T03:46:37.948Z,101097.50
2018-09-01T03:49:07.827Z,101099.24
2018-09-01T03:51:36.789Z,101094.77
2018-09-01T03:54:05.074Z,101094.27
2018-09-01T03:56:33.242Z,101098.62
2018-09-01T03:59:02.213Z,101099.97
2018-09-01T04:01:30.472Z,101104.23
2018-09-01T04:03:59.671Z,101103.72
2018-09-01T04:06:27.840Z,101106.42
2018-09-01T04:08:55.981Z,101104.86
2018-09-01T04:11:24.396Z,101119.09
2018-09-01T04:13:52.613Z,101123.05
2018-09-01T04:16:20.796Z,101127.48
2018-09-01T04:18:49.134Z,101131.87
2018-09-01T04:21:18.073Z,101139.85
2018-09-01T04:23:46.283Z,101142.55
2018-09-01T04:26:14.509Z,101139.97
2018-09-01T04:28:43.299Z,101144.83
2018-09-01T04:31:11.459Z,101143.30
2018-09-01T04:33:39.602Z,101140.60
2018-09-01T04:36:08.549Z,101144.83
2018-09-01T04:38:36.777Z,101152.84
2018-09-01T04:41:05.078Z,101156.47
2018-09-01T04:43:33.346Z,101158.55
2018-09-01T04:46:02.511Z,101152.63
2018-09-01T04:48:30.660Z,101157.52
2018-09-01T04:50:58.851Z,101165.09
2018-09-01T04:53:27.791Z,101164.59
2018-09-01T04:55:56.036Z,101163.02
2018-09-01T04:58:25.205Z,101164.80
2018-09-01T05:00:53.481Z,101169.53
2018-09-01T05:03:21.693Z,101170.13
2018-09-01T05:05:50.004Z,101177.64
2018-09-01T05:08:18.202Z,101176.58
2018-09-01T05:10:47.074Z,101185.86
2018-09-01T05:13:15.284Z,101179.52
2018-09-01T05:15:43.656Z,101181.89
2018-09-01T05:18:12.538Z,101180.95
2018-09-01T05:20:40.764Z,101181.69
2018-09-01T05:23:09.097Z,101191.24
2018-09-01T05:25:38.524Z,101183.77
2018-09-01T05:28:06.740Z,101179.42
2018-09-01T05:30:35.076Z,101176.90
2018-09-01T05:33:03.420Z,101183.13
2018-09-01T05:35:31.804Z,101180.86
2018-09-01T05:38:00.143Z,101181.76
2018-09-01T05:40:29.142Z,101183.38
2018-09-01T05:42:57.312Z,101183.09
2018-09-01T05:45:25.592Z,101185.88
2018-09-01T05:47:53.798Z,101190.53
2018-09-01T05:50:22.022Z,101190.19
2018-09-01T05:52:50.274Z,101196.09
2018-09-01T05:55:18.457Z,101191.65
2018-09-01T05:57:46.892Z,101190.45
2018-09-01T06:00:19.642Z,101194.09
2018-09-01T06:02:50.639Z,101197.28
2018-09-01T06:05:18.870Z,101199.05
2018-09-01T06:07:48.215Z,101207.48
2018-09-01T06:10:16.480Z,101200.82
2018-09-01T06:12:44.876Z,101206.33
2018-09-01T06:15:13.250Z,101202.87
2018-09-01T06:17:41.637Z,101203.20
2018-09-01T06:20:09.743Z,101198.94
2018-09-01T06:22:38.101Z,101197.00
2018-09-01T06:25:06.473Z,101200.20
2018-09-01T06:27:41.135Z,101206.78
2018-09-01T06:30:13.953Z,101210.95
2018-09-01T06:32:42.349Z,101207.30
2018-09-01T06:35:10.549Z,101207.97
2018-09-01T06:37:38.777Z,101205.88
2018-09-01T06:40:07.235Z,101210.25
2018-09-01T06:42:35.555Z,101202.05
2018-09-01T06:45:03.786Z,101205.38
2018-09-01T06:47:32.541Z,101204.02
2018-09-01T06:50:01.294Z,101210.62
2018-09-01T06:52:29.453Z,101211.52
2018-09-01T06:54:57.711Z,101210.91
2018-09-01T06:57:25.833Z,101218.88
2018-09-01T06:59:54.028Z,101215.00
2018-09-01T07:02:22.467Z,101232.81
2018-09-01T07:04:50.720Z,101218.99
2018-09-01T07:07:18.926Z,101227.08
2018-09-01T07:09:47.109Z,101227.83
2018-09-01T07:12:15.364Z,101226.33
2018-09-01T07:14:43.607Z,101227.41
2018-09-01T07:17:11.990Z,101237.20
2018-09-01T07:19:40.213Z,101239.94
2018-09-01T07:22:08.420Z,101244.38
2018-09-01T07:24:36.717Z,101250.69
2018-09-01T07:27:05.056Z,101246.67
2018-09-01T07:29:33.288Z,101247.52
2018-09-01T07:32:01.476Z,101243.52
2018-09-01T07:34:29.710Z,101246.46
2018-09-01T07:36:58.496Z,101244.69
2018-09-01T07:39:26.658Z,101247.61
2018-09-01T07:41:54.840Z,101250.97
2018-09-01T07:44:22.993Z,101236.78
2018-09-01T07:46:51.218Z,101237.27
2018-09-01T07:49:19.415Z,101241.75
2018-09-01T07:51:47.799Z,101238.89
2018-09-01T07:54:16.009Z,101238.80
2018-09-01T07:56:44.235Z,101237.52
2018-09-01T07:59:12.477Z,101238.39
2018-09-01T08:01:40.685Z,101231.86
2018-09-01T08:04:09.077Z,101240.09
2018-09-01T08:06:37.177Z,101238.05
2018-09-01T08:09:07.759Z,101247.77
2018-09-01T08:11:36.473Z,101246.97
2018-09-01T08:14:04.745Z,101251.41
2018-09-01T08:16:32.777Z,101252.16
2018-09-01T08:19:00.950Z,101252.98
2018-09-01T08:21:30.079Z,101250.92
2018-09-01T08:23:58.179Z,101249.05
2018-09-01T08:26:26.344Z,101253.35
2018-09-01T08:28:54.473Z,101257.98
2018-09-01T08:31:22.642Z,101260.42
2018-09-01T08:33:50.907Z,101256.93
2018-09-01T08:36:19.420Z,101263.27
2018-09-01T08:38:49.337Z,101263.08
2018-09-01T08:41:17.587Z,101263.19
2018-09-01T08:43:45.804Z,101258.66
2018-09-01T08:46:14.046Z,101260.33
2018-09-01T08:48:48.943Z,101256.58
2018-09-01T08:51:17.144Z,101248.77
2018-09-01T08:53:45.299Z,101248.66
2018-09-01T08:56:13.465Z,101241.38
2018-09-01T08:58:41.769Z,101236.75
2018-09-01T09:01:09.994Z,101238.51
2018-09-01T09:03:38.124Z,101238.14
2018-09-01T09:06:06.365Z,101240.51
2018-09-01T09:08:34.657Z,101231.89
2018-09-01T09:11:02.832Z,101239.91
2018-09-01T09:13:31.004Z,101243.72
2018-09-01T09:15:59.120Z,101244.09
2018-09-01T09:18:27.316Z,101235.69
2018-09-01T09:20:55.489Z,101239.02
2018-09-01T09:23:23.701Z,101235.78
2018-09-01T09:25:51.987Z,101239.92
2018-09-01T09:28:20.663Z,101235.80
2018-09-01T09:30:49.530Z,101248.56
2018-09-01T09:33:17.819Z,101241.36
2018-09-01T09:35:46.361Z,101242.56
2018-09-01T09:38:14.730Z,101242.44
2018-09-01T09:40:43.068Z,101233.27
2018-09-01T09:43:11.389Z,101238.70
2018-09-01T09:45:39.634Z,101239.95
2018-09-01T09:48:07.801Z,101238.44
2018-09-01T09:50:35.888Z,101244.67
2018-09-01T09:53:04.546Z,101239.01
2018-09-01T09:55:32.636Z,101225.95
2018-09-01T09:58:00.778Z,101233.84
2018-09-01T10:00:34.664Z,101227.50
2018-09-01T10:03:02.852Z,101233.50
2018-09-01T10:05:31.093Z,101233.67
2018-09-01T10:07:59.348Z,101232.53
2018-09-01T10:10:27.542Z,101234.73
2018-09-01T10:12:55.724Z,101236.55
2018-09-01T10:15:23.971Z,101230.97
2018-09-01T10:17:58.763Z,101231.27
2018-09-01T10:20:27.022Z,101234.91
2018-09-01T10:22:55.252Z,101228.22
2018-09-01T10:25:23.392Z,101225.11
2018-09-01T10:27:51.493Z,101222.68
2018-09-01T10:30:19.613Z,101211.73
2018-09-01T10:32:47.898Z,101207.97
2018-09-01T10:35:16.011Z,101213.73
2018-09-01T10:37:44.293Z,101201.95
2018-09-01T10:40:12.471Z,101214.16
2018-09-01T10:42:40.808Z,101212.81
2018-09-01T10:45:09.065Z,101208.67
2018-09-01T10:47:37.177Z,101215.33
2018-09-01T10:50:05.427Z,101203.40
2018-09-01T10:52:33.750Z,101198.87
2018-09-01T10:55:02.071Z,101197.56
2018-09-01T10:57:30.411Z,101194.79
2018-09-01T10:59:58.680Z,101195.84
2018-09-01T11:02:27.029Z,101199.84
2018-09-01T11:04:55.255Z,101186.37
2018-09-01T11:07:23.961Z,101195.56
2018-09-01T11:09:52.071Z,101191.80
2018-09-01T11:12:20.554Z,101191.42
2018-09-01T11:14:48.713Z,101192.84
2018-09-01T11:17:17.655Z,101193.37
2018-09-01T11:19:46.915Z,101183.87
2018-09-01T11:22:15.419Z,101188.52
2018-09-01T11:24:43.571Z,101189.48
2018-09-01T11:27:11.804Z,101185.41
2018-09-01T11:29:39.955Z,101188.09
2018-09-01T11:32:08.157Z,101186.47
2018-09-01T11:34:36.329Z,101187.84
2018-09-01T11:37:04.561Z,101191.20
2018-09-01T11:39:32.805Z,101186.13
2018-09-01T11:42:01.099Z,101183.77
2018-09-01T11:44:29.344Z,101183.89
2018-09-01T11:46:57.545Z,101173.17
2018-09-01T11:49:25.756Z,101179.05
2018-09-01T11:51:54.049Z,101177.04
2018-09-01T11:54:22.303Z,101172.62
2018-09-01T11:56:50.520Z,101181.44
2018-09-01T11:59:18.754Z,101183.52
2018-09-01T12:01:46.957Z,101191.12
2018-09-01T12:04:15.291Z,101180.74
2018-09-01T12:06:43.696Z,101175.17
2018-09-01T12:09:12.219Z,101175.67
2018-09-01T12:11:40.485Z,101182.23
2018-09-01T12:14:08.669Z,101181.64
2018-09-01T12:16:36.878Z,101177.19
2018-09-01T12:19:05.183Z,101180.82
2018-09-01T12:21:33.373Z,101173.72
2018-09-01T12:24:01.649Z,101171.33
2018-09-01T12:26:29.925Z,101172.81
2018-09-01T12:28:58.086Z,101174.39
2018-09-01T12:31:26.363Z,101175.82
2018-09-01T12:33:55.321Z,101173.73
2018-09-01T12:36:24.260Z,101174.11
2018-09-01T12:38:52.437Z,101176.98
2018-09-01T12:41:20.662Z,101173.14
2018-09-01T12:43:48.765Z,101172.33
2018-09-01T12:46:17.025Z,101175.34
2018-09-01T12:48:45.217Z,101175.52
2018-09-01T12:51:13.394Z,101162.94
2018-09-01T12:53:41.751Z,101160.86
2018-09-01T12:56:10.070Z,101165.42
2018-09-01T12:58:38.741Z,101159.57
2018-09-01T13:01:07.376Z,101158.07
2018-09-01T13:03:35.636Z,101163.56
2018-09-01T13:06:03.894Z,101165.41
2018-09-01T13:08:32.153Z,101163.88
2018-09-01T13:11:00.388Z,101161.53
2018-09-01T13:13:28.721Z,101157.47
2018-09-01T13:15:56.904Z,101160.06
2018-09-01T13:18:25.134Z,101161.89
2018-09-01T13:20:53.400Z,101160.94
2018-09-01T13:23:21.645Z,101160.16
2018-09-01T13:25:49.905Z,101158.41
2018-09-01T13:28:18.231Z,101157.84
2018-09-01T13:30:46.397Z,101158.48
2018-09-01T13:33:14.634Z,101159.14
2018-09-01T13:35:42.851Z,101162.13
2018-09-01T13:38:11.204Z,101163.97
2018-09-01T13:40:39.576Z,101163.53
2018-09-01T13:43:07.716Z,101161.30
2018-09-01T13:45:35.880Z,101160.73
2018-09-01T13:48:04.234Z,101164.51
2018-09-01T13:50:32.468Z,101166.05
2018-09-01T13:53:00.924Z,101168.70
2018-09-01T13:55:29.969Z,101165.94
2018-09-01T13:57:59.912Z,101169.03
2018-09-01T14:00:28.125Z,101165.59
2018-09-01T14:02:56.246Z,101161.02
2018-09-01T14:05:24.323Z,101153.83
2018-09-01T14:07:52.510Z,101154.05
2018-09-01T14:10:20.712Z,101165.22
2018-09-01T14:12:48.981Z,101161.56
2018-09-01T14:15:17.099Z,101162.05
2018-09-01T14:17:45.382Z,101163.64
2018-09-01T14:20:13.661Z,101161.74
2018-09-01T14:22:41.928Z,101165.66
2018-09-01T14:25:10.112Z,101170.14
2018-09-01T14:27:38.335Z,101164.02
2018-09-01T14:30:07.398Z,101162.16
2018-09-01T14:32:36.009Z,101159.78
2018-09-01T14:35:05.483Z,101159.06
2018-09-01T14:37:33.776Z,101166.05
2018-09-01T14:40:02.823Z,101164.84
2018-09-01T14:42:31.031Z,101155.48
2018-09-01T14:44:59.606Z,101163.28
2018-09-01T14:47:27.965Z,101163.28
2018-09-01T14:49:56.115Z,101160.75
2018-09-01T14:52:24.428Z,101158.25
2018-09-01T14:54:52.653Z,101165.19
2018-09-01T14:57:20.880Z,101164.36
2018-09-01T14:59:49.575Z,101166.02
2018-09-01T15:02:18.799Z,101165.19
2018-09-01T15:04:46.986Z,101166.64
2018-09-01T15:07:15.202Z,101167.48
2018-09-01T15:09:43.565Z,101166.06
2018-09-01T15:12:11.759Z,101168.05
2018-09-01T15:14:39.959Z,101163.95
2018-09-01T15:17:08.048Z,101173.61
2018-09-01T15:19:36.455Z,101169.50
2018-09-01T15:22:04.638Z,101173.13
2018-09-01T15:24:32.815Z,101178.91
2018-09-01T15:27:00.983Z,101172.30
2018-09-01T15:29:29.164Z,101173.42
2018-09-01T15:31:57.416Z,101168.16
2018-09-01T15:34:25.572Z,101175.05
2018-09-01T15:36:54.495Z,101180.83
2018-09-01T15:39:22.872Z,101180.27
2018-09-01T15:41:51.191Z,101175.07
2018-09-01T15:44:19.425Z,101181.94
2018-09-01T15:46:47.615Z,101177.80
2018-09-01T15:49:15.926Z,101178.06
2018-09-01T15:51:44.085Z,101181.33
2018-09-01T15:54:12.277Z,101188.97
2018-09-01T15:56:41.120Z,101188.12
2018-09-01T15:59:09.312Z,101194.48
2018-09-01T16:01:38.190Z,101192.82
2018-09-01T16:04:06.424Z,101197.78
2018-09-01T16:06:36.738Z,101192.30
2018-09-01T16:09:05.960Z,101194.77
2018-09-01T16:11:34.330Z,101187.58
2018-09-01T16:14:03.968Z,101191.70
2018-09-01T16:16:32.432Z,101194.98
2018-09-01T16:19:00.796Z,101187.78
2018-09-01T16:21:29.080Z,101194.91
2018-09-01T16:23:57.334Z,101200.06
2018-09-01T16:26:26.478Z,101198.03
2018-09-01T16:29:02.584Z,101200.97
2018-09-01T16:31:30.784Z,101194.67
2018-09-01T16:33:58.983Z,101199.16
2018-09-01T16:36:27.184Z,101202.71
2018-09-01T16:38:55.746Z,101199.48
2018-09-01T16:41:32.618Z,101199.65
2018-09-01T16:44:00.965Z,101211.16
2018-09-01T16:46:29.241Z,101210.32
2018-09-01T16:48:57.679Z,101209.46
2018-09-01T16:51:25.915Z,101215.98
2018-09-01T16:53:54.110Z,101219.89
2018-09-01T16:56:22.421Z,101217.95
2018-09-01T16:58:50.647Z,101223.95
2018-09-01T17:01:18.841Z,101216.19
2018-09-01T17:03:47.080Z,101220.66
2018-09-01T17:06:15.327Z,101216.92
2018-09-01T17:08:43.597Z,101224.91
2018-09-01T17:11:11.990Z,101223.16
2018-09-01T17:13:40.114Z,101226.55
2018-09-01T17:16:08.537Z,101229.75
2018-09-01T17:18:36.893Z,101228.00
2018-09-01T17:21:11.960Z,101231.45
2018-09-01T17:23:40.049Z,101241.30
2018-09-01T17:26:08.236Z,101234.69
2018-09-01T17:28:36.515Z,101241.17
2018-09-01T17:31:04.978Z,101238.70
2018-09-01T17:33:33.254Z,101235.55
2018-09-01T17:36:01.348Z,101238.39
2018-09-01T17:38:29.466Z,101231.77
2018-09-01T17:40:57.688Z,101228.59
2018-09-01T17:43:25.930Z,101234.34
2018-09-01T17:45:54.170Z,101236.81
2018-09-01T17:48:22.437Z,101235.14
2018-09-01T17:50:50.671Z,101233.56
2018-09-01T17:53:18.886Z,101232.98
2018-09-01T17:55:47.084Z,101236.66
2018-09-01T17:58:15.244Z,101240.23
2018-09-01T18:00:43.432Z,101246.82
2018-09-01T18:03:12.305Z,101245.12
2018-09-01T18:05:40.468Z,101249.23
2018-09-01T18:08:08.892Z,101247.87
2018-09-01T18:10:37.153Z,101245.77
2018-09-01T18:13:05.497Z,101253.14
2018-09-01T18:15:33.693Z,101249.81
2018-09-01T18:18:02.336Z,101254.77
2018-09-01T18:20:37.464Z,101253.39
2018-09-01T18:23:05.718Z,101254.37
2018-09-01T18:25:33.836Z,101257.39
2018-09-01T18:28:03.039Z,101256.02
2018-09-01T18:30:31.378Z,101260.13
2018-09-01T18:32:59.609Z,101264.66
2018-09-01T18:35:27.886Z,101264.93
2018-09-01T18:37:56.004Z,101261.75
2018-09-01T18:40:24.298Z,101262.18
2018-09-01T18:42:52.445Z,101265.55
2018-09-01T18:45:21.305Z,101273.77
2018-09-01T18:47:49.543Z,101270.80
2018-09-01T18:50:17.757Z,101270.02
2018-09-01T18:52:45.993Z,101273.27
2018-09-01T18:55:14.624Z,101266.63
2018-09-01T18:57:43.086Z,101278.48
2018-09-01T19:00:11.326Z,101275.94
2018-09-01T19:02:39.622Z,101276.47
2018-09-01T19:05:08.611Z,101277.95
2018-09-01T19:07:37.599Z,101276.53
2018-09-01T19:10:05.883Z,101284.38
2018-09-01T19:12:34.076Z,101286.09
2018-09-01T19:15:02.208Z,101289.88
2018-09-01T19:17:31.241Z,101287.52
2018-09-01T19:20:00.107Z,101288.83
2018-09-01T19:22:31.903Z,101293.82
2018-09-01T19:25:01.461Z,101294.09
2018-09-01T19:27:30.345Z,101289.23
2018-09-01T19:29:59.376Z,101286.38
2018-09-01T19:32:27.877Z,101285.22
2018-09-01T19:34:56.088Z,101287.37
2018-09-01T19:37:24.278Z,101285.23
2018-09-01T19:39:52.645Z,101279.24
2018-09-01T19:42:20.834Z,101280.46
2018-09-01T19:44:49.372Z,101284.33
2018-09-01T19:47:17.395Z,101289.95
2018-09-01T19:49:45.847Z,101284.33
2018-09-01T19:52:13.954Z,101280.53
2018-09-01T19:54:42.083Z,101288.70
2018-09-01T19:57:10.309Z,101289.64
2018-09-01T19:59:38.800Z,101297.23
2018-09-01T20:02:07.043Z,101293.64
2018-09-01T20:04:35.423Z,101290.22
2018-09-01T20:07:03.742Z,101288.76
2018-09-01T20:09:32.090Z,101288.09
2018-09-01T20:12:00.276Z,101278.95
2018-09-01T20:14:28.558Z,101278.13
2018-09-01T20:16:56.820Z,101280.34
2018-09-01T20:19:24.990Z,101283.66
2018-09-01T20:21:53.212Z,101283.00
2018-09-01T20:24:21.456Z,101284.84
2018-09-01T20:26:49.775Z,101283.72
2018-09-01T20:29:17.934Z,101283.39
2018-09-01T20:31:46.152Z,101286.54
2018-09-01T20:34:15.077Z,101283.55
2018-09-01T20:36:43.314Z,101292.86
2018-09-01T20:39:11.493Z,101289.02
2018-09-01T20:41:39.643Z,101289.80
2018-09-01T20:44:08.329Z,101289.88
2018-09-01T20:46:36.572Z,101291.83
2018-09-01T20:49:05.661Z,101291.30
2018-09-01T20:51:33.855Z,101294.56
2018-09-01T20:54:02.030Z,101298.75
2018-09-01T20:56:30.309Z,101304.55
2018-09-01T20:58:58.507Z,101306.14
2018-09-01T21:01:26.704Z,101304.74
2018-09-01T21:03:54.923Z,101304.05
2018-09-01T21:06:23.282Z,101301.91
2018-09-01T21:08:51.370Z,101303.73
2018-09-01T21:11:19.677Z,101300.64
2018-09-01T21:13:47.889Z,101305.88
2018-09-01T21:16:16.228Z,101310.45
2018-09-01T21:18:44.450Z,101306.88
2018-09-01T21:21:12.719Z,101308.84
2018-09-01T21:23:40.942Z,101316.48
2018-09-01T21:26:09.185Z,101316.65
2018-09-01T21:28:37.379Z,101318.95
2018-09-01T21:31:05.644Z,101309.22
2018-09-01T21:33:33.850Z,101310.30
2018-09-01T21:36:02.118Z,101314.22
2018-09-01T21:38:30.595Z,101304.13
2018-09-01T21:40:58.791Z,101307.11
2018-09-01T21:43:27.367Z,101289.79
2018-09-01T21:45:55.542Z,101294.51
2018-09-01T21:48:23.672Z,101297.15
2018-09-01T21:50:51.839Z,101296.09
2018-09-01T21:53:19.955Z,101299.60
2018-09-01T21:55:48.294Z,101298.23
2018-09-01T21:58:16.524Z,101302.13
2018-09-01T22:00:50.486Z,101295.65
2018-09-01T22:03:19.986Z,101298.37
2018-09-01T22:05:49.056Z,101296.28
2018-09-01T22:08:17.348Z,101295.93
2018-09-01T22:10:45.484Z,101296.84
2018-09-01T22:13:13.685Z,101300.47
2018-09-01T22:15:41.824Z,101300.53
2018-09-01T22:18:09.985Z,101301.37
2018-09-01T22:20:38.257Z,101305.05
2018-09-01T22:23:06.431Z,101307.00
2018-09-01T22:25:34.530Z,101301.30
2018-09-01T22:28:02.734Z,101300.17
2018-09-01T22:30:31.232Z,101301.64
2018-09-01T22:32:59.365Z,101303.84
2018-09-01T22:35:27.568Z,101297.89
2018-09-01T22:37:55.728Z,101301.39
2018-09-01T22:40:24.515Z,101301.61
2018-09-01T22:42:52.641Z,101305.45
2018-09-01T22:45:20.943Z,101308.28
2018-09-01T22:47:49.144Z,101310.66
2018-09-01T22:50:18.288Z,101310.17
2018-09-01T22:52:46.463Z,101304.33
2018-09-01T22:55:14.642Z,101303.78
2018-09-01T22:57:42.882Z,101306.16
2018-09-01T23:00:11.197Z,101307.34
2018-09-01T23:02:39.488Z,101300.08
2018-09-01T23:05:07.641Z,101300.86
2018-09-01T23:07:36.732Z,101303.59
2018-09-01T23:10:05.069Z,101301.84
2018-09-01T23:12:33.978Z,101299.31
2018-09-01T23:15:02.161Z,101294.11
2018-09-01T23:17:30.425Z,101300.62
2018-09-01T23:19:58.719Z,101297.44
2018-09-01T23:22:26.931Z,101300.48
2018-09-01T23:24:55.109Z,101303.20
2018-09-01T23:27:23.301Z,101299.02
2018-09-01T23:29:51.497Z,101291.42
2018-09-01T23:32:19.883Z,101290.62
2018-09-01T23:34:49.021Z,101301.39
2018-09-01T23:37:17.222Z,101306.70
2018-09-01T23:39:45.385Z,101308.24
2018-09-01T23:42:13.601Z,101301.42
2018-09-01T23:44:41.759Z,101301.84
2018-09-01T23:47:10.708Z,101311.08
2018-09-01T23:49:38.909Z,101307.79
2018-09-01T23:52:07.223Z,101310.94
2018-09-01T23:54:35.421Z,101307.44
2018-09-01T23:57:03.964Z,101311.08
2018-09-01T23:59:32.107Z,101311.63
